sensor_id;sensor_type;location;lat;lon;timestamp;P1;durP1;ratioP1;P2;durP2;ratioP2
68108;SDS011;54893;49.864;19.084;2023-09-08T00:01:32;25.73;;;14.23;;
68108;SDS011;54893;49.864;19.084;2023-09-08T00:06:33;23.60;;;12.80;;
68108;SDS011;54893;49.864;19.084;2023-09-08T00:11:33;25.97;;;13.93;;
68108;SDS011;54893;49.864;19.084;2023-09-08T00:16:33;25.30;;;13.67;;
68108;SDS011;54893;49.864;19.084;2023-09-08T00:21:34;24.95;;;13.77;;
68108;SDS011;54893;49.864;19.084;2023-09-08T00:26:34;22.30;;;12.82;;
68108;SDS011;54893;49.864;19.084;2023-09-08T00:31:34;25.05;;;12.93;;
68108;SDS011;54893;49.864;19.084;2023-09-08T00:36:36;23.05;;;12.35;;
68108;SDS011;54893;49.864;19.084;2023-09-08T00:41:36;22.43;;;12.60;;
68108;SDS011;54893;49.864;19.084;2023-09-08T00:46:37;27.65;;;12.38;;
68108;SDS011;54893;49.864;19.084;2023-09-08T00:51:37;21.70;;;12.47;;
68108;SDS011;54893;49.864;19.084;2023-09-08T00:56:38;25.40;;;13.97;;
68108;SDS011;54893;49.864;19.084;2023-09-08T01:01:38;25.50;;;14.35;;
68108;SDS011;54893;49.864;19.084;2023-09-08T01:06:39;28.90;;;14.00;;
68108;SDS011;54893;49.864;19.084;2023-09-08T01:11:39;27.60;;;14.30;;
68108;SDS011;54893;49.864;19.084;2023-09-08T01:16:40;28.95;;;14.73;;
68108;SDS011;54893;49.864;19.084;2023-09-08T01:27:17;26.85;;;13.88;;
68108;SDS011;54893;49.864;19.084;2023-09-08T01:32:18;26.17;;;13.93;;
68108;SDS011;54893;49.864;19.084;2023-09-08T01:37:22;26.50;;;14.40;;
68108;SDS011;54893;49.864;19.084;2023-09-08T01:42:23;28.10;;;14.77;;
68108;SDS011;54893;49.864;19.084;2023-09-08T01:47:24;26.80;;;14.57;;
68108;SDS011;54893;49.864;19.084;2023-09-08T01:52:24;27.77;;;15.20;;
68108;SDS011;54893;49.864;19.084;2023-09-08T01:57:25;27.37;;;14.73;;
68108;SDS011;54893;49.864;19.084;2023-09-08T02:02:25;28.37;;;15.07;;
68108;SDS011;54893;49.864;19.084;2023-09-08T02:07:26;27.67;;;14.53;;
68108;SDS011;54893;49.864;19.084;2023-09-08T02:12:26;29.57;;;14.90;;
68108;SDS011;54893;49.864;19.084;2023-09-08T02:17:27;27.13;;;14.10;;
68108;SDS011;54893;49.864;19.084;2023-09-08T02:22:27;28.17;;;14.75;;
68108;SDS011;54893;49.864;19.084;2023-09-08T02:27:27;24.37;;;14.33;;
68108;SDS011;54893;49.864;19.084;2023-09-08T02:32:28;26.67;;;14.57;;
68108;SDS011;54893;49.864;19.084;2023-09-08T02:37:29;26.77;;;13.30;;
68108;SDS011;54893;49.864;19.084;2023-09-08T02:42:29;24.67;;;13.50;;
68108;SDS011;54893;49.864;19.084;2023-09-08T02:47:29;26.00;;;14.38;;
68108;SDS011;54893;49.864;19.084;2023-09-08T02:52:30;29.70;;;14.60;;
68108;SDS011;54893;49.864;19.084;2023-09-08T02:57:30;30.07;;;15.97;;
68108;SDS011;54893;49.864;19.084;2023-09-08T03:02:30;27.77;;;14.40;;
68108;SDS011;54893;49.864;19.084;2023-09-08T03:07:31;26.88;;;12.93;;
68108;SDS011;54893;49.864;19.084;2023-09-08T03:12:33;30.37;;;14.90;;
68108;SDS011;54893;49.864;19.084;2023-09-08T03:17:34;29.77;;;16.07;;
68108;SDS011;54893;49.864;19.084;2023-09-08T03:22:34;39.23;;;17.27;;
68108;SDS011;54893;49.864;19.084;2023-09-08T03:27:34;40.13;;;17.45;;
68108;SDS011;54893;49.864;19.084;2023-09-08T03:32:35;32.70;;;15.38;;
68108;SDS011;54893;49.864;19.084;2023-09-08T03:37:36;31.75;;;15.68;;
68108;SDS011;54893;49.864;19.084;2023-09-08T03:42:36;29.33;;;15.30;;
68108;SDS011;54893;49.864;19.084;2023-09-08T03:47:36;29.13;;;15.35;;
68108;SDS011;54893;49.864;19.084;2023-09-08T03:52:37;31.03;;;15.57;;
68108;SDS011;54893;49.864;19.084;2023-09-08T03:57:37;31.00;;;15.27;;
68108;SDS011;54893;49.864;19.084;2023-09-08T04:02:38;35.37;;;16.87;;
68108;SDS011;54893;49.864;19.084;2023-09-08T04:07:38;33.33;;;16.37;;
68108;SDS011;54893;49.864;19.084;2023-09-08T04:12:41;30.97;;;15.60;;
68108;SDS011;54893;49.864;19.084;2023-09-08T04:17:42;31.30;;;15.43;;
68108;SDS011;54893;49.864;19.084;2023-09-08T04:22:42;36.75;;;18.60;;
68108;SDS011;54893;49.864;19.084;2023-09-08T04:27:43;36.67;;;18.33;;
68108;SDS011;54893;49.864;19.084;2023-09-08T04:32:44;32.97;;;16.85;;
68108;SDS011;54893;49.864;19.084;2023-09-08T04:37:45;35.35;;;16.90;;
68108;SDS011;54893;49.864;19.084;2023-09-08T04:42:45;32.85;;;17.02;;
68108;SDS011;54893;49.864;19.084;2023-09-08T04:47:45;38.97;;;17.57;;
68108;SDS011;54893;49.864;19.084;2023-09-08T04:52:46;33.60;;;16.60;;
68108;SDS011;54893;49.864;19.084;2023-09-08T04:57:47;36.42;;;18.50;;
68108;SDS011;54893;49.864;19.084;2023-09-08T05:02:47;40.90;;;18.52;;
68108;SDS011;54893;49.864;19.084;2023-09-08T05:07:47;34.47;;;17.47;;
68108;SDS011;54893;49.864;19.084;2023-09-08T05:12:48;36.27;;;17.30;;
68108;SDS011;54893;49.864;19.084;2023-09-08T05:17:49;30.98;;;16.48;;
68108;SDS011;54893;49.864;19.084;2023-09-08T05:22:49;28.83;;;16.33;;
68108;SDS011;54893;49.864;19.084;2023-09-08T05:27:50;22.08;;;13.05;;
68108;SDS011;54893;49.864;19.084;2023-09-08T05:32:50;20.10;;;11.40;;
68108;SDS011;54893;49.864;19.084;2023-09-08T05:37:50;18.83;;;10.90;;
68108;SDS011;54893;49.864;19.084;2023-09-08T05:42:51;18.77;;;10.73;;
68108;SDS011;54893;49.864;19.084;2023-09-08T05:47:51;17.57;;;10.50;;
68108;SDS011;54893;49.864;19.084;2023-09-08T05:52:52;19.23;;;10.18;;
68108;SDS011;54893;49.864;19.084;2023-09-08T05:57:52;15.57;;;9.60;;
68108;SDS011;54893;49.864;19.084;2023-09-08T06:02:52;16.77;;;9.68;;
68108;SDS011;54893;49.864;19.084;2023-09-08T06:07:53;16.40;;;10.13;;
68108;SDS011;54893;49.864;19.084;2023-09-08T06:12:53;16.08;;;9.50;;
68108;SDS011;54893;49.864;19.084;2023-09-08T06:17:53;15.97;;;9.00;;
68108;SDS011;54893;49.864;19.084;2023-09-08T06:22:54;13.23;;;8.60;;
68108;SDS011;54893;49.864;19.084;2023-09-08T06:27:54;13.37;;;8.57;;
68108;SDS011;54893;49.864;19.084;2023-09-08T06:32:55;17.20;;;8.70;;
68108;SDS011;54893;49.864;19.084;2023-09-08T06:39:12;13.52;;;8.50;;
68108;SDS011;54893;49.864;19.084;2023-09-08T06:44:57;13.43;;;8.13;;
68108;SDS011;54893;49.864;19.084;2023-09-08T06:50:01;14.75;;;8.52;;
68108;SDS011;54893;49.864;19.084;2023-09-08T06:55:30;14.13;;;8.35;;
68108;SDS011;54893;49.864;19.084;2023-09-08T07:00:31;12.88;;;8.40;;
68108;SDS011;54893;49.864;19.084;2023-09-08T07:05:31;12.88;;;8.05;;
68108;SDS011;54893;49.864;19.084;2023-09-08T07:10:32;12.97;;;7.80;;
68108;SDS011;54893;49.864;19.084;2023-09-08T07:15:32;13.77;;;7.93;;
68108;SDS011;54893;49.864;19.084;2023-09-08T07:20:33;13.23;;;8.45;;
68108;SDS011;54893;49.864;19.084;2023-09-08T07:25:34;14.73;;;8.27;;
68108;SDS011;54893;49.864;19.084;2023-09-08T07:30:35;13.75;;;8.95;;
68108;SDS011;54893;49.864;19.084;2023-09-08T07:35:38;21.53;;;9.83;;
68108;SDS011;54893;49.864;19.084;2023-09-08T07:40:39;17.13;;;10.30;;
68108;SDS011;54893;49.864;19.084;2023-09-08T07:45:41;16.38;;;10.20;;
68108;SDS011;54893;49.864;19.084;2023-09-08T07:50:41;16.40;;;10.23;;
68108;SDS011;54893;49.864;19.084;2023-09-08T07:55:42;23.53;;;10.13;;
68108;SDS011;54893;49.864;19.084;2023-09-08T08:00:42;19.20;;;8.47;;
68108;SDS011;54893;49.864;19.084;2023-09-08T08:05:42;21.60;;;9.47;;
68108;SDS011;54893;49.864;19.084;2023-09-08T08:10:43;21.67;;;9.40;;
68108;SDS011;54893;49.864;19.084;2023-09-08T08:15:44;19.13;;;9.03;;
68108;SDS011;54893;49.864;19.084;2023-09-08T08:20:47;14.80;;;8.48;;
68108;SDS011;54893;49.864;19.084;2023-09-08T08:25:48;21.83;;;9.93;;
68108;SDS011;54893;49.864;19.084;2023-09-08T08:30:49;17.47;;;8.67;;
68108;SDS011;54893;49.864;19.084;2023-09-08T08:35:49;19.33;;;8.67;;
68108;SDS011;54893;49.864;19.084;2023-09-08T08:40:50;13.32;;;8.15;;
68108;SDS011;54893;49.864;19.084;2023-09-08T08:45:50;16.13;;;7.80;;
68108;SDS011;54893;49.864;19.084;2023-09-08T08:50:52;14.88;;;7.88;;
68108;SDS011;54893;49.864;19.084;2023-09-08T08:55:53;11.83;;;7.20;;
68108;SDS011;54893;49.864;19.084;2023-09-08T09:00:57;14.25;;;7.72;;
68108;SDS011;54893;49.864;19.084;2023-09-08T09:05:58;14.50;;;8.02;;
68108;SDS011;54893;49.864;19.084;2023-09-08T09:10:59;14.05;;;7.95;;
68108;SDS011;54893;49.864;19.084;2023-09-08T09:15:59;17.70;;;7.80;;
68108;SDS011;54893;49.864;19.084;2023-09-08T09:21:01;18.47;;;8.00;;
68108;SDS011;54893;49.864;19.084;2023-09-08T09:26:02;12.37;;;8.10;;
68108;SDS011;54893;49.864;19.084;2023-09-08T09:31:06;12.93;;;8.00;;
68108;SDS011;54893;49.864;19.084;2023-09-08T09:36:07;14.10;;;8.50;;
68108;SDS011;54893;49.864;19.084;2023-09-08T09:41:09;15.65;;;8.43;;
68108;SDS011;54893;49.864;19.084;2023-09-08T09:46:09;14.23;;;8.13;;
68108;SDS011;54893;49.864;19.084;2023-09-08T09:51:16;15.10;;;7.90;;
68108;SDS011;54893;49.864;19.084;2023-09-08T09:56:18;14.33;;;7.43;;
68108;SDS011;54893;49.864;19.084;2023-09-08T10:01:18;12.82;;;7.70;;
68108;SDS011;54893;49.864;19.084;2023-09-08T10:06:19;9.97;;;7.17;;
68108;SDS011;54893;49.864;19.084;2023-09-08T10:11:21;11.80;;;7.47;;
68108;SDS011;54893;49.864;19.084;2023-09-08T10:16:22;15.73;;;8.27;;
68108;SDS011;54893;49.864;19.084;2023-09-08T10:21:27;12.43;;;7.95;;
68108;SDS011;54893;49.864;19.084;2023-09-08T10:26:30;14.40;;;7.47;;
68108;SDS011;54893;49.864;19.084;2023-09-08T10:31:34;14.38;;;7.70;;
68108;SDS011;54893;49.864;19.084;2023-09-08T10:36:35;13.50;;;8.17;;
68108;SDS011;54893;49.864;19.084;2023-09-08T10:41:36;12.52;;;7.80;;
68108;SDS011;54893;49.864;19.084;2023-09-08T10:46:36;12.02;;;7.57;;
68108;SDS011;54893;49.864;19.084;2023-09-08T10:51:37;15.02;;;7.78;;
68108;SDS011;54893;49.864;19.084;2023-09-08T10:56:54;13.07;;;8.07;;
68108;SDS011;54893;49.864;19.084;2023-09-08T11:01:55;12.07;;;7.78;;
68108;SDS011;54893;49.864;19.084;2023-09-08T11:06:56;12.53;;;7.83;;
68108;SDS011;54893;49.864;19.084;2023-09-08T11:11:58;14.10;;;7.67;;
68108;SDS011;54893;49.864;19.084;2023-09-08T11:17:03;11.55;;;7.43;;
68108;SDS011;54893;49.864;19.084;2023-09-08T11:22:03;10.87;;;7.40;;
68108;SDS011;54893;49.864;19.084;2023-09-08T11:27:04;13.23;;;7.57;;
68108;SDS011;54893;49.864;19.084;2023-09-08T11:32:05;9.43;;;7.05;;
68108;SDS011;54893;49.864;19.084;2023-09-08T11:37:17;12.63;;;7.43;;
68108;SDS011;54893;49.864;19.084;2023-09-08T11:42:18;10.80;;;6.88;;
68108;SDS011;54893;49.864;19.084;2023-09-08T11:47:21;10.73;;;7.03;;
68108;SDS011;54893;49.864;19.084;2023-09-08T11:52:24;13.80;;;7.27;;
68108;SDS011;54893;49.864;19.084;2023-09-08T11:57:24;11.30;;;7.33;;
68108;SDS011;54893;49.864;19.084;2023-09-08T12:02:25;12.33;;;7.20;;
68108;SDS011;54893;49.864;19.084;2023-09-08T12:07:25;10.97;;;7.37;;
68108;SDS011;54893;49.864;19.084;2023-09-08T12:12:26;14.83;;;7.40;;
68108;SDS011;54893;49.864;19.084;2023-09-08T12:17:26;11.95;;;7.70;;
68108;SDS011;54893;49.864;19.084;2023-09-08T12:22:28;11.43;;;7.60;;
68108;SDS011;54893;49.864;19.084;2023-09-08T12:27:32;10.52;;;7.55;;
68108;SDS011;54893;49.864;19.084;2023-09-08T12:32:36;10.45;;;6.93;;
68108;SDS011;54893;49.864;19.084;2023-09-08T12:37:38;11.32;;;6.90;;
68108;SDS011;54893;49.864;19.084;2023-09-08T12:42:38;12.27;;;7.05;;
68108;SDS011;54893;49.864;19.084;2023-09-08T12:47:39;11.25;;;6.68;;
68108;SDS011;54893;49.864;19.084;2023-09-08T12:52:39;10.27;;;6.10;;
68108;SDS011;54893;49.864;19.084;2023-09-08T12:57:40;10.53;;;6.80;;
68108;SDS011;54893;49.864;19.084;2023-09-08T13:02:40;11.10;;;6.90;;
68108;SDS011;54893;49.864;19.084;2023-09-08T13:07:41;13.25;;;6.82;;
68108;SDS011;54893;49.864;19.084;2023-09-08T13:12:42;11.65;;;6.50;;
68108;SDS011;54893;49.864;19.084;2023-09-08T13:17:42;12.33;;;6.57;;
68108;SDS011;54893;49.864;19.084;2023-09-08T13:22:42;10.02;;;6.07;;
68108;SDS011;54893;49.864;19.084;2023-09-08T13:27:44;11.25;;;6.15;;
68108;SDS011;54893;49.864;19.084;2023-09-08T13:32:44;10.93;;;6.00;;
68108;SDS011;54893;49.864;19.084;2023-09-08T13:37:44;10.80;;;6.40;;
68108;SDS011;54893;49.864;19.084;2023-09-08T13:42:45;9.90;;;6.22;;
68108;SDS011;54893;49.864;19.084;2023-09-08T13:47:45;10.93;;;6.40;;
68108;SDS011;54893;49.864;19.084;2023-09-08T13:52:45;10.47;;;6.33;;
68108;SDS011;54893;49.864;19.084;2023-09-08T13:57:46;11.70;;;6.83;;
68108;SDS011;54893;49.864;19.084;2023-09-08T14:02:47;8.83;;;6.40;;
68108;SDS011;54893;49.864;19.084;2023-09-08T14:07:48;11.03;;;7.60;;
68108;SDS011;54893;49.864;19.084;2023-09-08T14:12:48;10.02;;;6.15;;
68108;SDS011;54893;49.864;19.084;2023-09-08T14:17:49;10.93;;;6.63;;
68108;SDS011;54893;49.864;19.084;2023-09-08T14:22:49;10.70;;;6.00;;
68108;SDS011;54893;49.864;19.084;2023-09-08T14:27:49;9.70;;;6.10;;
68108;SDS011;54893;49.864;19.084;2023-09-08T14:32:50;9.23;;;6.10;;
68108;SDS011;54893;49.864;19.084;2023-09-08T14:37:50;9.77;;;6.30;;
68108;SDS011;54893;49.864;19.084;2023-09-08T14:42:50;10.07;;;6.22;;
68108;SDS011;54893;49.864;19.084;2023-09-08T14:47:51;8.10;;;5.80;;
68108;SDS011;54893;49.864;19.084;2023-09-08T14:52:51;9.63;;;6.43;;
68108;SDS011;54893;49.864;19.084;2023-09-08T14:57:51;11.82;;;6.70;;
68108;SDS011;54893;49.864;19.084;2023-09-08T15:02:51;11.02;;;6.32;;
68108;SDS011;54893;49.864;19.084;2023-09-08T15:07:52;8.57;;;6.33;;
68108;SDS011;54893;49.864;19.084;2023-09-08T15:12:52;10.23;;;6.50;;
68108;SDS011;54893;49.864;19.084;2023-09-08T15:17:53;8.33;;;6.30;;
68108;SDS011;54893;49.864;19.084;2023-09-08T15:22:54;11.32;;;7.90;;
68108;SDS011;54893;49.864;19.084;2023-09-08T15:27:55;9.00;;;6.83;;
68108;SDS011;54893;49.864;19.084;2023-09-08T15:32:55;11.00;;;7.20;;
68108;SDS011;54893;49.864;19.084;2023-09-08T15:37:57;9.43;;;7.05;;
68108;SDS011;54893;49.864;19.084;2023-09-08T15:42:58;12.60;;;7.30;;
68108;SDS011;54893;49.864;19.084;2023-09-08T15:47:58;9.88;;;7.00;;
68108;SDS011;54893;49.864;19.084;2023-09-08T15:52:58;11.13;;;6.32;;
68108;SDS011;54893;49.864;19.084;2023-09-08T15:57:59;13.80;;;6.68;;
68108;SDS011;54893;49.864;19.084;2023-09-08T16:02:59;12.13;;;6.63;;
68108;SDS011;54893;49.864;19.084;2023-09-08T16:07:59;14.17;;;6.73;;
68108;SDS011;54893;49.864;19.084;2023-09-08T16:13:00;15.98;;;6.70;;
68108;SDS011;54893;49.864;19.084;2023-09-08T16:18:00;15.13;;;6.30;;
68108;SDS011;54893;49.864;19.084;2023-09-08T16:23:00;14.63;;;6.83;;
68108;SDS011;54893;49.864;19.084;2023-09-08T16:28:02;12.85;;;6.93;;
68108;SDS011;54893;49.864;19.084;2023-09-08T16:33:03;14.67;;;6.67;;
68108;SDS011;54893;49.864;19.084;2023-09-08T16:38:03;16.97;;;6.67;;
68108;SDS011;54893;49.864;19.084;2023-09-08T16:43:04;19.87;;;7.37;;
68108;SDS011;54893;49.864;19.084;2023-09-08T16:48:05;20.75;;;7.28;;
68108;SDS011;54893;49.864;19.084;2023-09-08T16:53:05;19.00;;;7.97;;
68108;SDS011;54893;49.864;19.084;2023-09-08T16:58:06;21.90;;;8.10;;
68108;SDS011;54893;49.864;19.084;2023-09-08T17:03:06;24.03;;;9.00;;
68108;SDS011;54893;49.864;19.084;2023-09-08T17:08:06;28.67;;;11.03;;
68108;SDS011;54893;49.864;19.084;2023-09-08T17:13:07;22.33;;;9.60;;
68108;SDS011;54893;49.864;19.084;2023-09-08T17:18:07;26.87;;;10.70;;
68108;SDS011;54893;49.864;19.084;2023-09-08T17:23:07;22.42;;;11.05;;
68108;SDS011;54893;49.864;19.084;2023-09-08T17:28:08;19.57;;;10.57;;
68108;SDS011;54893;49.864;19.084;2023-09-08T17:33:08;20.63;;;10.77;;
68108;SDS011;54893;49.864;19.084;2023-09-08T17:38:08;25.05;;;11.95;;
68108;SDS011;54893;49.864;19.084;2023-09-08T17:43:10;24.35;;;12.88;;
68108;SDS011;54893;49.864;19.084;2023-09-08T17:48:10;33.57;;;17.13;;
68108;SDS011;54893;49.864;19.084;2023-09-08T17:53:11;66.10;;;36.63;;
68108;SDS011;54893;49.864;19.084;2023-09-08T17:58:11;69.70;;;36.47;;
68108;SDS011;54893;49.864;19.084;2023-09-08T18:03:12;58.17;;;30.08;;
68108;SDS011;54893;49.864;19.084;2023-09-08T18:08:12;42.03;;;22.00;;
68108;SDS011;54893;49.864;19.084;2023-09-08T18:13:13;40.60;;;21.57;;
68108;SDS011;54893;49.864;19.084;2023-09-08T18:18:13;39.93;;;21.10;;
68108;SDS011;54893;49.864;19.084;2023-09-08T18:23:13;37.27;;;21.03;;
68108;SDS011;54893;49.864;19.084;2023-09-08T18:28:14;49.97;;;24.20;;
68108;SDS011;54893;49.864;19.084;2023-09-08T18:33:17;51.95;;;24.30;;
68108;SDS011;54893;49.864;19.084;2023-09-08T18:38:18;45.67;;;23.57;;
68108;SDS011;54893;49.864;19.084;2023-09-08T18:43:18;36.80;;;19.57;;
68108;SDS011;54893;49.864;19.084;2023-09-08T18:48:19;38.27;;;21.30;;
68108;SDS011;54893;49.864;19.084;2023-09-08T18:53:19;33.90;;;19.13;;
68108;SDS011;54893;49.864;19.084;2023-09-08T18:58:19;30.93;;;18.20;;
68108;SDS011;54893;49.864;19.084;2023-09-08T19:03:22;34.85;;;19.65;;
68108;SDS011;54893;49.864;19.084;2023-09-08T19:08:23;38.23;;;20.23;;
68108;SDS011;54893;49.864;19.084;2023-09-08T19:13:23;38.73;;;21.23;;
68108;SDS011;54893;49.864;19.084;2023-09-08T19:18:23;36.33;;;21.50;;
68108;SDS011;54893;49.864;19.084;2023-09-08T19:23:24;35.47;;;21.07;;
68108;SDS011;54893;49.864;19.084;2023-09-08T19:28:24;37.20;;;20.40;;
68108;SDS011;54893;49.864;19.084;2023-09-08T19:33:24;32.08;;;19.77;;
68108;SDS011;54893;49.864;19.084;2023-09-08T19:38:26;33.03;;;19.23;;
68108;SDS011;54893;49.864;19.084;2023-09-08T19:43:27;32.83;;;19.98;;
68108;SDS011;54893;49.864;19.084;2023-09-08T19:48:27;33.70;;;19.60;;
68108;SDS011;54893;49.864;19.084;2023-09-08T19:53:28;33.90;;;21.07;;
68108;SDS011;54893;49.864;19.084;2023-09-08T19:58:29;38.35;;;23.35;;
68108;SDS011;54893;49.864;19.084;2023-09-08T20:03:29;34.85;;;21.90;;
68108;SDS011;54893;49.864;19.084;2023-09-08T20:08:30;44.20;;;22.47;;
68108;SDS011;54893;49.864;19.084;2023-09-08T20:13:31;36.95;;;21.55;;
68108;SDS011;54893;49.864;19.084;2023-09-08T20:18:31;39.10;;;20.88;;
68108;SDS011;54893;49.864;19.084;2023-09-08T20:23:32;31.83;;;20.53;;
68108;SDS011;54893;49.864;19.084;2023-09-08T20:28:34;74.30;;;42.43;;
68108;SDS011;54893;49.864;19.084;2023-09-08T20:33:34;75.40;;;45.07;;
68108;SDS011;54893;49.864;19.084;2023-09-08T20:38:34;58.90;;;34.58;;
68108;SDS011;54893;49.864;19.084;2023-09-08T20:43:35;48.13;;;28.73;;
68108;SDS011;54893;49.864;19.084;2023-09-08T20:48:36;39.03;;;23.20;;
68108;SDS011;54893;49.864;19.084;2023-09-08T20:53:40;34.92;;;20.75;;
68108;SDS011;54893;49.864;19.084;2023-09-08T20:58:41;36.70;;;21.77;;
68108;SDS011;54893;49.864;19.084;2023-09-08T21:03:42;40.03;;;23.57;;
68108;SDS011;54893;49.864;19.084;2023-09-08T21:08:45;35.50;;;22.02;;
68108;SDS011;54893;49.864;19.084;2023-09-08T21:13:45;36.07;;;22.47;;
68108;SDS011;54893;49.864;19.084;2023-09-08T21:18:45;26.40;;;17.17;;
68108;SDS011;54893;49.864;19.084;2023-09-08T21:23:46;32.92;;;18.13;;
68108;SDS011;54893;49.864;19.084;2023-09-08T21:29:14;31.85;;;17.75;;
68108;SDS011;54893;49.864;19.084;2023-09-08T21:34:17;29.87;;;17.10;;
68108;SDS011;54893;49.864;19.084;2023-09-08T21:39:20;30.27;;;17.48;;
68108;SDS011;54893;49.864;19.084;2023-09-08T21:44:20;28.03;;;17.90;;
68108;SDS011;54893;49.864;19.084;2023-09-08T21:49:21;32.72;;;20.58;;
68108;SDS011;54893;49.864;19.084;2023-09-08T21:54:21;35.73;;;21.87;;
68108;SDS011;54893;49.864;19.084;2023-09-08T21:59:22;37.72;;;22.13;;
68108;SDS011;54893;49.864;19.084;2023-09-08T22:04:22;41.33;;;25.73;;
68108;SDS011;54893;49.864;19.084;2023-09-08T22:09:22;41.87;;;24.47;;
68108;SDS011;54893;49.864;19.084;2023-09-08T22:14:23;37.33;;;21.87;;
68108;SDS011;54893;49.864;19.084;2023-09-08T22:19:23;28.47;;;17.30;;
68108;SDS011;54893;49.864;19.084;2023-09-08T22:24:24;28.13;;;16.67;;
68108;SDS011;54893;49.864;19.084;2023-09-08T22:29:24;26.10;;;15.63;;
68108;SDS011;54893;49.864;19.084;2023-09-08T22:34:24;25.57;;;15.33;;
68108;SDS011;54893;49.864;19.084;2023-09-08T22:39:25;26.47;;;15.17;;
68108;SDS011;54893;49.864;19.084;2023-09-08T22:44:26;26.93;;;15.67;;
68108;SDS011;54893;49.864;19.084;2023-09-08T22:49:26;27.37;;;15.43;;
68108;SDS011;54893;49.864;19.084;2023-09-08T22:54:26;27.45;;;15.48;;
68108;SDS011;54893;49.864;19.084;2023-09-08T22:59:27;28.53;;;16.07;;
68108;SDS011;54893;49.864;19.084;2023-09-08T23:04:27;29.00;;;17.08;;
68108;SDS011;54893;49.864;19.084;2023-09-08T23:09:28;27.55;;;16.73;;
68108;SDS011;54893;49.864;19.084;2023-09-08T23:14:29;25.90;;;16.70;;
68108;SDS011;54893;49.864;19.084;2023-09-08T23:19:29;27.98;;;16.92;;
68108;SDS011;54893;49.864;19.084;2023-09-08T23:24:30;30.97;;;18.60;;
68108;SDS011;54893;49.864;19.084;2023-09-08T23:29:30;30.02;;;18.08;;
68108;SDS011;54893;49.864;19.084;2023-09-08T23:34:31;32.47;;;17.47;;
68108;SDS011;54893;49.864;19.084;2023-09-08T23:39:33;27.42;;;16.90;;
68108;SDS011;54893;49.864;19.084;2023-09-08T23:44:33;28.60;;;16.27;;
68108;SDS011;54893;49.864;19.084;2023-09-08T23:49:33;29.35;;;15.93;;
68108;SDS011;54893;49.864;19.084;2023-09-08T23:54:34;31.70;;;18.10;;
68108;SDS011;54893;49.864;19.084;2023-09-08T23:59:34;31.58;;;17.90;;
